sensor_id;sensor_type;location;lat;lon;timestamp;P1;durP1;ratioP1;P2;durP2;ratioP2
15307;SDS011;7755;52.208;6.964;2023-04-03T00:01:28;3.67;;;2.70;;
15307;SDS011;7755;52.208;6.964;2023-04-03T00:05:32;4.73;;;2.73;;
15307;SDS011;7755;52.208;6.964;2023-04-03T00:09:35;4.00;;;2.83;;
15307;SDS011;7755;52.208;6.964;2023-04-03T00:13:39;3.83;;;2.50;;
15307;SDS011;7755;52.208;6.964;2023-04-03T00:17:42;5.23;;;3.40;;
15307;SDS011;7755;52.208;6.964;2023-04-03T00:21:45;4.47;;;2.97;;
15307;SDS011;7755;52.208;6.964;2023-04-03T00:25:47;3.20;;;2.90;;
15307;SDS011;7755;52.208;6.964;2023-04-03T00:29:53;3.33;;;3.03;;
15307;SDS011;7755;52.208;6.964;2023-04-03T00:33:56;4.70;;;3.00;;
15307;SDS011;7755;52.208;6.964;2023-04-03T00:37:58;5.20;;;3.43;;
15307;SDS011;7755;52.208;6.964;2023-04-03T00:42:01;3.73;;;2.87;;
15307;SDS011;7755;52.208;6.964;2023-04-03T00:46:05;4.97;;;3.30;;
15307;SDS011;7755;52.208;6.964;2023-04-03T00:50:08;3.63;;;2.87;;
15307;SDS011;7755;52.208;6.964;2023-04-03T00:54:12;3.73;;;3.17;;
15307;SDS011;7755;52.208;6.964;2023-04-03T00:58:15;5.67;;;3.07;;
15307;SDS011;7755;52.208;6.964;2023-04-03T01:02:21;4.23;;;3.10;;
15307;SDS011;7755;52.208;6.964;2023-04-03T01:06:31;6.43;;;3.20;;
15307;SDS011;7755;52.208;6.964;2023-04-03T01:10:41;4.23;;;3.00;;
15307;SDS011;7755;52.208;6.964;2023-04-03T01:14:45;5.90;;;3.47;;
15307;SDS011;7755;52.208;6.964;2023-04-03T01:18:50;3.77;;;2.80;;
15307;SDS011;7755;52.208;6.964;2023-04-03T01:22:53;3.73;;;2.97;;
15307;SDS011;7755;52.208;6.964;2023-04-03T01:27:01;4.07;;;3.07;;
15307;SDS011;7755;52.208;6.964;2023-04-03T01:31:09;3.63;;;2.60;;
15307;SDS011;7755;52.208;6.964;2023-04-03T01:35:21;3.20;;;2.90;;
15307;SDS011;7755;52.208;6.964;2023-04-03T01:39:25;3.20;;;2.83;;
15307;SDS011;7755;52.208;6.964;2023-04-03T01:43:29;5.57;;;3.20;;
15307;SDS011;7755;52.208;6.964;2023-04-03T01:47:32;5.70;;;3.50;;
15307;SDS011;7755;52.208;6.964;2023-04-03T01:51:36;3.03;;;2.40;;
15307;SDS011;7755;52.208;6.964;2023-04-03T01:55:39;4.90;;;2.90;;
15307;SDS011;7755;52.208;6.964;2023-04-03T01:59:42;4.93;;;3.03;;
15307;SDS011;7755;52.208;6.964;2023-04-03T02:03:45;4.23;;;3.13;;
15307;SDS011;7755;52.208;6.964;2023-04-03T02:07:49;5.33;;;2.93;;
15307;SDS011;7755;52.208;6.964;2023-04-03T02:11:52;4.10;;;2.80;;
15307;SDS011;7755;52.208;6.964;2023-04-03T02:15:55;4.40;;;2.80;;
15307;SDS011;7755;52.208;6.964;2023-04-03T02:19:58;6.47;;;3.17;;
15307;SDS011;7755;52.208;6.964;2023-04-03T02:24:02;4.00;;;2.83;;
15307;SDS011;7755;52.208;6.964;2023-04-03T02:28:05;5.43;;;3.07;;
15307;SDS011;7755;52.208;6.964;2023-04-03T02:32:08;3.43;;;3.00;;
15307;SDS011;7755;52.208;6.964;2023-04-03T02:36:11;2.93;;;2.63;;
15307;SDS011;7755;52.208;6.964;2023-04-03T02:40:19;3.23;;;2.93;;
15307;SDS011;7755;52.208;6.964;2023-04-03T02:44:22;4.37;;;3.07;;
15307;SDS011;7755;52.208;6.964;2023-04-03T02:48:26;5.00;;;3.17;;
15307;SDS011;7755;52.208;6.964;2023-04-03T02:52:29;3.00;;;2.73;;
15307;SDS011;7755;52.208;6.964;2023-04-03T02:56:34;4.77;;;3.00;;
15307;SDS011;7755;52.208;6.964;2023-04-03T03:00:37;4.70;;;3.00;;
15307;SDS011;7755;52.208;6.964;2023-04-03T03:04:40;5.40;;;2.43;;
15307;SDS011;7755;52.208;6.964;2023-04-03T03:08:44;4.57;;;2.77;;
15307;SDS011;7755;52.208;6.964;2023-04-03T03:12:48;3.30;;;2.57;;
15307;SDS011;7755;52.208;6.964;2023-04-03T03:16:52;2.87;;;2.67;;
15307;SDS011;7755;52.208;6.964;2023-04-03T03:20:55;3.47;;;2.90;;
15307;SDS011;7755;52.208;6.964;2023-04-03T03:24:59;3.03;;;2.70;;
15307;SDS011;7755;52.208;6.964;2023-04-03T03:29:03;3.23;;;2.60;;
15307;SDS011;7755;52.208;6.964;2023-04-03T03:33:06;3.87;;;2.80;;
15307;SDS011;7755;52.208;6.964;2023-04-03T03:37:09;3.83;;;2.70;;
15307;SDS011;7755;52.208;6.964;2023-04-03T03:41:12;2.67;;;2.30;;
15307;SDS011;7755;52.208;6.964;2023-04-03T03:45:18;5.10;;;3.17;;
15307;SDS011;7755;52.208;6.964;2023-04-03T03:49:21;4.73;;;2.77;;
15307;SDS011;7755;52.208;6.964;2023-04-03T03:53:24;4.67;;;2.73;;
15307;SDS011;7755;52.208;6.964;2023-04-03T03:57:31;5.73;;;2.50;;
15307;SDS011;7755;52.208;6.964;2023-04-03T04:01:36;3.47;;;2.87;;
15307;SDS011;7755;52.208;6.964;2023-04-03T04:05:39;5.27;;;2.90;;
15307;SDS011;7755;52.208;6.964;2023-04-03T04:09:42;3.70;;;2.70;;
15307;SDS011;7755;52.208;6.964;2023-04-03T04:13:44;4.17;;;2.87;;
15307;SDS011;7755;52.208;6.964;2023-04-03T04:17:51;3.20;;;2.30;;
15307;SDS011;7755;52.208;6.964;2023-04-03T04:21:55;3.53;;;2.70;;
15307;SDS011;7755;52.208;6.964;2023-04-03T04:25:58;2.70;;;2.50;;
15307;SDS011;7755;52.208;6.964;2023-04-03T04:30:04;5.27;;;3.33;;
15307;SDS011;7755;52.208;6.964;2023-04-03T04:34:10;3.77;;;3.20;;
15307;SDS011;7755;52.208;6.964;2023-04-03T04:38:14;3.93;;;2.70;;
15307;SDS011;7755;52.208;6.964;2023-04-03T04:42:17;3.63;;;2.70;;
15307;SDS011;7755;52.208;6.964;2023-04-03T04:46:22;5.80;;;2.97;;
15307;SDS011;7755;52.208;6.964;2023-04-03T04:50:31;4.73;;;3.40;;
15307;SDS011;7755;52.208;6.964;2023-04-03T04:54:34;5.37;;;4.20;;
15307;SDS011;7755;52.208;6.964;2023-04-03T04:58:37;3.97;;;3.10;;
15307;SDS011;7755;52.208;6.964;2023-04-03T05:02:41;6.60;;;3.77;;
15307;SDS011;7755;52.208;6.964;2023-04-03T05:06:46;3.70;;;2.87;;
15307;SDS011;7755;52.208;6.964;2023-04-03T05:10:54;4.40;;;3.43;;
15307;SDS011;7755;52.208;6.964;2023-04-03T05:14:59;3.73;;;3.43;;
15307;SDS011;7755;52.208;6.964;2023-04-03T05:19:04;4.67;;;3.20;;
15307;SDS011;7755;52.208;6.964;2023-04-03T05:23:10;4.60;;;3.30;;
15307;SDS011;7755;52.208;6.964;2023-04-03T05:27:14;7.77;;;4.30;;
15307;SDS011;7755;52.208;6.964;2023-04-03T05:31:22;5.77;;;3.70;;
15307;SDS011;7755;52.208;6.964;2023-04-03T05:35:25;4.73;;;3.10;;
15307;SDS011;7755;52.208;6.964;2023-04-03T05:39:33;7.00;;;3.90;;
15307;SDS011;7755;52.208;6.964;2023-04-03T05:43:39;7.03;;;3.57;;
15307;SDS011;7755;52.208;6.964;2023-04-03T05:47:43;3.43;;;3.13;;
15307;SDS011;7755;52.208;6.964;2023-04-03T05:51:46;4.17;;;2.97;;
15307;SDS011;7755;52.208;6.964;2023-04-03T05:55:59;4.23;;;3.03;;
15307;SDS011;7755;52.208;6.964;2023-04-03T06:00:06;6.57;;;4.03;;
15307;SDS011;7755;52.208;6.964;2023-04-03T06:04:14;3.13;;;2.80;;
15307;SDS011;7755;52.208;6.964;2023-04-03T06:08:17;5.00;;;3.00;;
15307;SDS011;7755;52.208;6.964;2023-04-03T06:12:22;4.17;;;3.30;;
15307;SDS011;7755;52.208;6.964;2023-04-03T06:16:25;5.80;;;2.93;;
15307;SDS011;7755;52.208;6.964;2023-04-03T06:20:28;5.50;;;3.17;;
15307;SDS011;7755;52.208;6.964;2023-04-03T06:24:31;4.13;;;3.20;;
15307;SDS011;7755;52.208;6.964;2023-04-03T06:28:35;5.57;;;3.43;;
15307;SDS011;7755;52.208;6.964;2023-04-03T06:32:38;3.10;;;2.90;;
15307;SDS011;7755;52.208;6.964;2023-04-03T06:36:41;5.77;;;3.13;;
15307;SDS011;7755;52.208;6.964;2023-04-03T06:40:46;4.70;;;3.30;;
15307;SDS011;7755;52.208;6.964;2023-04-03T06:44:50;4.13;;;2.80;;
15307;SDS011;7755;52.208;6.964;2023-04-03T06:48:53;4.37;;;2.93;;
15307;SDS011;7755;52.208;6.964;2023-04-03T06:52:56;3.40;;;3.03;;
15307;SDS011;7755;52.208;6.964;2023-04-03T06:56:59;4.37;;;3.07;;
15307;SDS011;7755;52.208;6.964;2023-04-03T07:01:03;2.90;;;2.67;;
15307;SDS011;7755;52.208;6.964;2023-04-03T07:05:07;7.97;;;3.00;;
15307;SDS011;7755;52.208;6.964;2023-04-03T07:09:10;5.67;;;3.20;;
15307;SDS011;7755;52.208;6.964;2023-04-03T07:13:13;4.90;;;2.70;;
15307;SDS011;7755;52.208;6.964;2023-04-03T07:17:17;5.30;;;2.77;;
15307;SDS011;7755;52.208;6.964;2023-04-03T07:21:19;3.13;;;2.33;;
15307;SDS011;7755;52.208;6.964;2023-04-03T07:25:22;3.60;;;2.60;;
15307;SDS011;7755;52.208;6.964;2023-04-03T07:29:25;4.20;;;2.30;;
15307;SDS011;7755;52.208;6.964;2023-04-03T07:33:30;3.67;;;2.50;;
15307;SDS011;7755;52.208;6.964;2023-04-03T07:37:33;2.70;;;2.20;;
15307;SDS011;7755;52.208;6.964;2023-04-03T07:41:36;3.60;;;2.47;;
15307;SDS011;7755;52.208;6.964;2023-04-03T07:45:38;5.20;;;2.30;;
15307;SDS011;7755;52.208;6.964;2023-04-03T07:49:43;3.03;;;2.47;;
15307;SDS011;7755;52.208;6.964;2023-04-03T07:53:46;6.03;;;2.93;;
15307;SDS011;7755;52.208;6.964;2023-04-03T07:57:49;2.20;;;2.00;;
15307;SDS011;7755;52.208;6.964;2023-04-03T08:01:52;2.93;;;2.20;;
15307;SDS011;7755;52.208;6.964;2023-04-03T08:06:00;2.03;;;1.90;;
15307;SDS011;7755;52.208;6.964;2023-04-03T08:10:07;2.97;;;1.90;;
15307;SDS011;7755;52.208;6.964;2023-04-03T08:14:10;2.07;;;1.90;;
15307;SDS011;7755;52.208;6.964;2023-04-03T08:18:18;4.50;;;2.47;;
15307;SDS011;7755;52.208;6.964;2023-04-03T08:22:24;2.00;;;1.87;;
15307;SDS011;7755;52.208;6.964;2023-04-03T08:26:27;4.10;;;1.90;;
15307;SDS011;7755;52.208;6.964;2023-04-03T08:30:30;2.83;;;2.07;;
15307;SDS011;7755;52.208;6.964;2023-04-03T08:34:33;2.57;;;2.20;;
15307;SDS011;7755;52.208;6.964;2023-04-03T08:38:39;2.10;;;1.60;;
15307;SDS011;7755;52.208;6.964;2023-04-03T08:42:45;3.00;;;1.80;;
15307;SDS011;7755;52.208;6.964;2023-04-03T08:47:00;3.23;;;1.60;;
15307;SDS011;7755;52.208;6.964;2023-04-03T08:51:14;2.37;;;1.73;;
15307;SDS011;7755;52.208;6.964;2023-04-03T08:55:23;1.70;;;1.60;;
15307;SDS011;7755;52.208;6.964;2023-04-03T08:59:29;2.40;;;1.60;;
15307;SDS011;7755;52.208;6.964;2023-04-03T09:03:37;1.80;;;1.70;;
15307;SDS011;7755;52.208;6.964;2023-04-03T09:07:43;2.57;;;1.50;;
15307;SDS011;7755;52.208;6.964;2023-04-03T09:11:53;1.73;;;1.33;;
15307;SDS011;7755;52.208;6.964;2023-04-03T09:16:03;1.40;;;1.30;;
15307;SDS011;7755;52.208;6.964;2023-04-03T09:20:19;2.33;;;1.30;;
15307;SDS011;7755;52.208;6.964;2023-04-03T09:24:27;1.67;;;1.30;;
15307;SDS011;7755;52.208;6.964;2023-04-03T09:28:33;1.53;;;1.40;;
15307;SDS011;7755;52.208;6.964;2023-04-03T09:32:47;1.70;;;1.50;;
15307;SDS011;7755;52.208;6.964;2023-04-03T09:36:52;1.60;;;1.50;;
15307;SDS011;7755;52.208;6.964;2023-04-03T09:41:02;1.60;;;1.53;;
15307;SDS011;7755;52.208;6.964;2023-04-03T09:45:21;2.30;;;1.40;;
15307;SDS011;7755;52.208;6.964;2023-04-03T09:49:27;1.83;;;1.73;;
15307;SDS011;7755;52.208;6.964;2023-04-03T09:53:32;1.60;;;1.50;;
15307;SDS011;7755;52.208;6.964;2023-04-03T09:57:37;1.63;;;1.57;;
15307;SDS011;7755;52.208;6.964;2023-04-03T10:01:43;1.57;;;1.43;;
15307;SDS011;7755;52.208;6.964;2023-04-03T10:06:00;2.07;;;1.50;;
15307;SDS011;7755;52.208;6.964;2023-04-03T10:10:16;2.10;;;1.53;;
15307;SDS011;7755;52.208;6.964;2023-04-03T10:14:21;1.93;;;1.23;;
15307;SDS011;7755;52.208;6.964;2023-04-03T10:18:31;1.47;;;1.37;;
15307;SDS011;7755;52.208;6.964;2023-04-03T10:22:42;1.73;;;1.40;;
15307;SDS011;7755;52.208;6.964;2023-04-03T10:26:52;1.63;;;1.53;;
15307;SDS011;7755;52.208;6.964;2023-04-03T10:31:02;1.53;;;1.43;;
15307;SDS011;7755;52.208;6.964;2023-04-03T10:35:12;2.67;;;1.73;;
15307;SDS011;7755;52.208;6.964;2023-04-03T10:39:23;1.40;;;1.30;;
15307;SDS011;7755;52.208;6.964;2023-04-03T10:43:35;2.13;;;1.60;;
15307;SDS011;7755;52.208;6.964;2023-04-03T10:47:46;1.50;;;1.40;;
15307;SDS011;7755;52.208;6.964;2023-04-03T10:52:00;1.53;;;1.47;;
15307;SDS011;7755;52.208;6.964;2023-04-03T10:56:11;2.27;;;1.60;;
15307;SDS011;7755;52.208;6.964;2023-04-03T11:00:19;1.50;;;1.40;;
15307;SDS011;7755;52.208;6.964;2023-04-03T11:04:26;1.77;;;1.47;;
15307;SDS011;7755;52.208;6.964;2023-04-03T11:08:34;2.77;;;1.60;;
15307;SDS011;7755;52.208;6.964;2023-04-03T11:12:41;1.83;;;1.27;;
15307;SDS011;7755;52.208;6.964;2023-04-03T11:16:49;2.20;;;1.70;;
15307;SDS011;7755;52.208;6.964;2023-04-03T11:21:02;2.07;;;1.50;;
15307;SDS011;7755;52.208;6.964;2023-04-03T11:25:17;2.43;;;1.77;;
15307;SDS011;7755;52.208;6.964;2023-04-03T11:29:24;1.50;;;1.40;;
15307;SDS011;7755;52.208;6.964;2023-04-03T11:33:41;2.40;;;1.80;;
15307;SDS011;7755;52.208;6.964;2023-04-03T11:37:51;1.70;;;1.60;;
15307;SDS011;7755;52.208;6.964;2023-04-03T11:41:56;3.37;;;1.70;;
15307;SDS011;7755;52.208;6.964;2023-04-03T11:46:17;2.03;;;1.37;;
15307;SDS011;7755;52.208;6.964;2023-04-03T11:50:31;2.07;;;1.50;;
15307;SDS011;7755;52.208;6.964;2023-04-03T11:54:47;2.17;;;1.70;;
15307;SDS011;7755;52.208;6.964;2023-04-03T12:03:32;2.17;;;1.90;;
15307;SDS011;7755;52.208;6.964;2023-04-03T12:12:24;1.60;;;1.50;;
15307;SDS011;7755;52.208;6.964;2023-04-03T12:16:41;1.87;;;1.77;;
15307;SDS011;7755;52.208;6.964;2023-04-03T12:20:53;1.70;;;1.60;;
15307;SDS011;7755;52.208;6.964;2023-04-03T12:24:58;2.00;;;1.90;;
15307;SDS011;7755;52.208;6.964;2023-04-03T12:29:42;2.90;;;2.00;;
15307;SDS011;7755;52.208;6.964;2023-04-03T12:43:04;3.47;;;2.33;;
15307;SDS011;7755;52.208;6.964;2023-04-03T12:47:23;3.77;;;2.23;;
15307;SDS011;7755;52.208;6.964;2023-04-03T12:51:32;2.40;;;1.70;;
15307;SDS011;7755;52.208;6.964;2023-04-03T12:55:39;2.53;;;1.80;;
15307;SDS011;7755;52.208;6.964;2023-04-03T12:59:42;2.20;;;1.60;;
15307;SDS011;7755;52.208;6.964;2023-04-03T13:03:49;2.60;;;1.80;;
15307;SDS011;7755;52.208;6.964;2023-04-03T13:07:57;2.00;;;1.80;;
15307;SDS011;7755;52.208;6.964;2023-04-03T13:12:03;2.80;;;1.70;;
15307;SDS011;7755;52.208;6.964;2023-04-03T13:16:16;3.33;;;2.10;;
15307;SDS011;7755;52.208;6.964;2023-04-03T13:20:20;2.63;;;2.00;;
15307;SDS011;7755;52.208;6.964;2023-04-03T13:24:27;2.63;;;1.83;;
15307;SDS011;7755;52.208;6.964;2023-04-03T13:28:32;2.00;;;1.80;;
15307;SDS011;7755;52.208;6.964;2023-04-03T13:32:36;5.43;;;3.60;;
15307;SDS011;7755;52.208;6.964;2023-04-03T13:36:39;1.97;;;1.70;;
15307;SDS011;7755;52.208;6.964;2023-04-03T13:40:48;2.33;;;1.80;;
15307;SDS011;7755;52.208;6.964;2023-04-03T13:45:07;2.23;;;2.03;;
15307;SDS011;7755;52.208;6.964;2023-04-03T13:49:19;2.63;;;1.80;;
15307;SDS011;7755;52.208;6.964;2023-04-03T13:53:23;2.27;;;2.07;;
15307;SDS011;7755;52.208;6.964;2023-04-03T13:57:27;2.23;;;1.80;;
15307;SDS011;7755;52.208;6.964;2023-04-03T14:01:41;2.37;;;1.87;;
15307;SDS011;7755;52.208;6.964;2023-04-03T14:05:47;1.83;;;1.73;;
15307;SDS011;7755;52.208;6.964;2023-04-03T14:09:50;3.50;;;1.90;;
15307;SDS011;7755;52.208;6.964;2023-04-03T14:13:55;3.63;;;1.90;;
15307;SDS011;7755;52.208;6.964;2023-04-03T14:17:59;2.77;;;2.30;;
15307;SDS011;7755;52.208;6.964;2023-04-03T14:22:10;1.93;;;1.80;;
15307;SDS011;7755;52.208;6.964;2023-04-03T14:26:17;3.03;;;2.10;;
15307;SDS011;7755;52.208;6.964;2023-04-03T14:30:23;2.00;;;1.90;;
15307;SDS011;7755;52.208;6.964;2023-04-03T14:34:28;2.60;;;2.23;;
15307;SDS011;7755;52.208;6.964;2023-04-03T14:38:31;2.17;;;1.80;;
15307;SDS011;7755;52.208;6.964;2023-04-03T14:42:35;4.47;;;1.90;;
15307;SDS011;7755;52.208;6.964;2023-04-03T14:46:41;9.13;;;5.83;;
15307;SDS011;7755;52.208;6.964;2023-04-03T14:50:57;2.17;;;1.97;;
15307;SDS011;7755;52.208;6.964;2023-04-03T14:55:06;2.50;;;2.30;;
15307;SDS011;7755;52.208;6.964;2023-04-03T14:59:11;2.40;;;2.03;;
15307;SDS011;7755;52.208;6.964;2023-04-03T15:03:17;2.23;;;1.73;;
15307;SDS011;7755;52.208;6.964;2023-04-03T15:07:22;2.97;;;1.80;;
15307;SDS011;7755;52.208;6.964;2023-04-03T15:11:27;2.43;;;1.80;;
15307;SDS011;7755;52.208;6.964;2023-04-03T15:15:33;3.13;;;2.57;;
15307;SDS011;7755;52.208;6.964;2023-04-03T15:19:39;2.50;;;2.30;;
15307;SDS011;7755;52.208;6.964;2023-04-03T15:23:43;4.40;;;2.40;;
15307;SDS011;7755;52.208;6.964;2023-04-03T15:27:45;4.07;;;1.90;;
15307;SDS011;7755;52.208;6.964;2023-04-03T15:31:48;2.80;;;1.80;;
15307;SDS011;7755;52.208;6.964;2023-04-03T15:35:56;6.70;;;4.60;;
15307;SDS011;7755;52.208;6.964;2023-04-03T15:40:08;2.13;;;1.60;;
15307;SDS011;7755;52.208;6.964;2023-04-03T15:44:12;3.27;;;1.83;;
15307;SDS011;7755;52.208;6.964;2023-04-03T15:48:15;1.80;;;1.70;;
15307;SDS011;7755;52.208;6.964;2023-04-03T15:52:20;3.10;;;2.07;;
15307;SDS011;7755;52.208;6.964;2023-04-03T15:56:23;2.27;;;2.07;;
15307;SDS011;7755;52.208;6.964;2023-04-03T16:00:26;2.17;;;1.80;;
15307;SDS011;7755;52.208;6.964;2023-04-03T16:04:29;3.57;;;2.00;;
15307;SDS011;7755;52.208;6.964;2023-04-03T16:08:34;1.90;;;1.70;;
15307;SDS011;7755;52.208;6.964;2023-04-03T16:12:39;2.90;;;1.90;;
15307;SDS011;7755;52.208;6.964;2023-04-03T16:16:42;3.60;;;1.80;;
15307;SDS011;7755;52.208;6.964;2023-04-03T16:20:44;4.23;;;2.00;;
15307;SDS011;7755;52.208;6.964;2023-04-03T16:24:49;3.10;;;1.83;;
15307;SDS011;7755;52.208;6.964;2023-04-03T16:28:52;2.27;;;2.00;;
15307;SDS011;7755;52.208;6.964;2023-04-03T16:32:55;2.80;;;1.90;;
15307;SDS011;7755;52.208;6.964;2023-04-03T16:36:59;2.57;;;2.13;;
15307;SDS011;7755;52.208;6.964;2023-04-03T16:41:13;2.70;;;1.80;;
15307;SDS011;7755;52.208;6.964;2023-04-03T16:45:16;2.20;;;2.00;;
15307;SDS011;7755;52.208;6.964;2023-04-03T16:49:19;2.10;;;1.90;;
15307;SDS011;7755;52.208;6.964;2023-04-03T16:53:22;1.87;;;1.77;;
15307;SDS011;7755;52.208;6.964;2023-04-03T16:57:27;4.40;;;2.47;;
15307;SDS011;7755;52.208;6.964;2023-04-03T17:01:30;3.13;;;1.90;;
15307;SDS011;7755;52.208;6.964;2023-04-03T17:05:33;2.10;;;1.90;;
15307;SDS011;7755;52.208;6.964;2023-04-03T17:09:36;2.23;;;1.77;;
15307;SDS011;7755;52.208;6.964;2023-04-03T17:13:40;2.30;;;2.00;;
15307;SDS011;7755;52.208;6.964;2023-04-03T17:17:43;3.43;;;2.17;;
15307;SDS011;7755;52.208;6.964;2023-04-03T17:21:46;2.47;;;2.27;;
15307;SDS011;7755;52.208;6.964;2023-04-03T17:25:49;2.97;;;1.97;;
15307;SDS011;7755;52.208;6.964;2023-04-03T17:29:53;3.80;;;3.40;;
15307;SDS011;7755;52.208;6.964;2023-04-03T17:33:56;2.83;;;2.57;;
15307;SDS011;7755;52.208;6.964;2023-04-03T17:38:01;2.70;;;2.10;;
15307;SDS011;7755;52.208;6.964;2023-04-03T17:42:05;2.53;;;2.33;;
15307;SDS011;7755;52.208;6.964;2023-04-03T17:46:09;2.33;;;2.10;;
15307;SDS011;7755;52.208;6.964;2023-04-03T17:50:12;2.33;;;1.87;;
15307;SDS011;7755;52.208;6.964;2023-04-03T17:54:16;2.17;;;1.90;;
15307;SDS011;7755;52.208;6.964;2023-04-03T17:58:19;2.60;;;2.23;;
15307;SDS011;7755;52.208;6.964;2023-04-03T18:02:23;2.40;;;2.20;;
15307;SDS011;7755;52.208;6.964;2023-04-03T18:06:26;4.80;;;3.00;;
15307;SDS011;7755;52.208;6.964;2023-04-03T18:10:32;3.63;;;3.13;;
15307;SDS011;7755;52.208;6.964;2023-04-03T18:14:38;3.20;;;2.90;;
15307;SDS011;7755;52.208;6.964;2023-04-03T18:18:43;4.00;;;2.80;;
15307;SDS011;7755;52.208;6.964;2023-04-03T18:22:46;3.80;;;2.90;;
15307;SDS011;7755;52.208;6.964;2023-04-03T18:26:50;5.17;;;3.37;;
15307;SDS011;7755;52.208;6.964;2023-04-03T18:30:56;3.53;;;2.90;;
15307;SDS011;7755;52.208;6.964;2023-04-03T18:35:01;4.70;;;2.87;;
15307;SDS011;7755;52.208;6.964;2023-04-03T18:39:05;3.83;;;2.97;;
15307;SDS011;7755;52.208;6.964;2023-04-03T18:43:07;3.03;;;2.73;;
15307;SDS011;7755;52.208;6.964;2023-04-03T18:47:11;8.90;;;6.00;;
15307;SDS011;7755;52.208;6.964;2023-04-03T18:51:15;3.47;;;3.17;;
15307;SDS011;7755;52.208;6.964;2023-04-03T18:55:18;3.87;;;3.30;;
15307;SDS011;7755;52.208;6.964;2023-04-03T18:59:21;4.03;;;3.20;;
15307;SDS011;7755;52.208;6.964;2023-04-03T19:03:23;4.00;;;3.10;;
15307;SDS011;7755;52.208;6.964;2023-04-03T19:07:28;5.27;;;3.63;;
15307;SDS011;7755;52.208;6.964;2023-04-03T19:11:31;3.80;;;3.37;;
15307;SDS011;7755;52.208;6.964;2023-04-03T19:15:35;4.97;;;3.97;;
15307;SDS011;7755;52.208;6.964;2023-04-03T19:19:38;4.93;;;3.60;;
15307;SDS011;7755;52.208;6.964;2023-04-03T19:23:42;5.30;;;3.50;;
15307;SDS011;7755;52.208;6.964;2023-04-03T19:27:46;4.87;;;3.50;;
15307;SDS011;7755;52.208;6.964;2023-04-03T19:31:49;4.07;;;3.67;;
15307;SDS011;7755;52.208;6.964;2023-04-03T19:35:52;6.33;;;4.13;;
15307;SDS011;7755;52.208;6.964;2023-04-03T19:39:57;4.27;;;3.53;;
15307;SDS011;7755;52.208;6.964;2023-04-03T19:44:00;4.77;;;3.90;;
15307;SDS011;7755;52.208;6.964;2023-04-03T19:48:03;5.30;;;4.07;;
15307;SDS011;7755;52.208;6.964;2023-04-03T19:52:06;4.23;;;3.80;;
15307;SDS011;7755;52.208;6.964;2023-04-03T19:56:10;5.33;;;4.07;;
15307;SDS011;7755;52.208;6.964;2023-04-03T20:00:13;4.03;;;3.73;;
15307;SDS011;7755;52.208;6.964;2023-04-03T20:04:16;5.40;;;4.80;;
15307;SDS011;7755;52.208;6.964;2023-04-03T20:08:19;5.67;;;4.50;;
15307;SDS011;7755;52.208;6.964;2023-04-03T20:12:24;5.80;;;4.10;;
15307;SDS011;7755;52.208;6.964;2023-04-03T20:16:27;3.77;;;3.47;;
15307;SDS011;7755;52.208;6.964;2023-04-03T20:20:31;4.17;;;3.37;;
15307;SDS011;7755;52.208;6.964;2023-04-03T20:24:34;4.00;;;3.60;;
15307;SDS011;7755;52.208;6.964;2023-04-03T20:28:38;4.23;;;3.20;;
15307;SDS011;7755;52.208;6.964;2023-04-03T20:32:41;4.50;;;3.43;;
15307;SDS011;7755;52.208;6.964;2023-04-03T20:36:44;5.20;;;4.00;;
15307;SDS011;7755;52.208;6.964;2023-04-03T20:40:50;4.57;;;3.30;;
15307;SDS011;7755;52.208;6.964;2023-04-03T20:44:54;4.83;;;3.30;;
15307;SDS011;7755;52.208;6.964;2023-04-03T20:48:58;3.60;;;3.30;;
15307;SDS011;7755;52.208;6.964;2023-04-03T20:53:01;4.23;;;3.63;;
15307;SDS011;7755;52.208;6.964;2023-04-03T20:57:04;4.27;;;3.87;;
15307;SDS011;7755;52.208;6.964;2023-04-03T21:01:15;4.50;;;4.17;;
15307;SDS011;7755;52.208;6.964;2023-04-03T21:05:20;5.50;;;4.50;;
15307;SDS011;7755;52.208;6.964;2023-04-03T21:23:10;5.00;;;4.33;;
15307;SDS011;7755;52.208;6.964;2023-04-03T21:27:14;4.70;;;3.83;;
15307;SDS011;7755;52.208;6.964;2023-04-03T21:31:17;3.77;;;3.47;;
15307;SDS011;7755;52.208;6.964;2023-04-03T21:35:22;8.20;;;6.50;;
15307;SDS011;7755;52.208;6.964;2023-04-03T21:39:24;6.73;;;5.00;;
15307;SDS011;7755;52.208;6.964;2023-04-03T21:43:28;5.13;;;4.33;;
15307;SDS011;7755;52.208;6.964;2023-04-03T21:47:32;5.80;;;4.60;;
15307;SDS011;7755;52.208;6.964;2023-04-03T21:51:37;7.13;;;5.20;;
15307;SDS011;7755;52.208;6.964;2023-04-03T21:55:40;5.77;;;5.27;;
15307;SDS011;7755;52.208;6.964;2023-04-03T21:59:43;5.80;;;5.40;;
15307;SDS011;7755;52.208;6.964;2023-04-03T22:03:46;6.13;;;5.07;;
15307;SDS011;7755;52.208;6.964;2023-04-03T22:07:50;5.93;;;5.40;;
15307;SDS011;7755;52.208;6.964;2023-04-03T22:11:54;6.50;;;5.93;;
15307;SDS011;7755;52.208;6.964;2023-04-03T22:15:57;6.20;;;5.60;;
15307;SDS011;7755;52.208;6.964;2023-04-03T22:20:01;8.67;;;5.70;;
15307;SDS011;7755;52.208;6.964;2023-04-03T22:24:06;6.87;;;5.13;;
15307;SDS011;7755;52.208;6.964;2023-04-03T22:28:09;5.47;;;4.93;;
15307;SDS011;7755;52.208;6.964;2023-04-03T22:32:14;7.37;;;5.53;;
15307;SDS011;7755;52.208;6.964;2023-04-03T22:36:16;6.90;;;6.27;;
15307;SDS011;7755;52.208;6.964;2023-04-03T22:40:20;6.90;;;6.20;;
15307;SDS011;7755;52.208;6.964;2023-04-03T22:44:23;6.27;;;5.20;;
15307;SDS011;7755;52.208;6.964;2023-04-03T22:48:32;7.10;;;5.60;;
15307;SDS011;7755;52.208;6.964;2023-04-03T22:52:35;5.63;;;5.00;;
15307;SDS011;7755;52.208;6.964;2023-04-03T22:56:39;5.77;;;5.17;;
15307;SDS011;7755;52.208;6.964;2023-04-03T23:00:42;5.33;;;4.70;;
15307;SDS011;7755;52.208;6.964;2023-04-03T23:04:45;6.33;;;5.30;;
15307;SDS011;7755;52.208;6.964;2023-04-03T23:08:48;5.67;;;5.07;;
15307;SDS011;7755;52.208;6.964;2023-04-03T23:12:52;5.60;;;5.10;;
15307;SDS011;7755;52.208;6.964;2023-04-03T23:16:55;5.93;;;5.33;;
15307;SDS011;7755;52.208;6.964;2023-04-03T23:21:05;5.63;;;5.13;;
15307;SDS011;7755;52.208;6.964;2023-04-03T23:25:09;4.50;;;4.17;;
15307;SDS011;7755;52.208;6.964;2023-04-03T23:29:13;4.87;;;4.50;;
15307;SDS011;7755;52.208;6.964;2023-04-03T23:33:16;6.90;;;5.10;;
15307;SDS011;7755;52.208;6.964;2023-04-03T23:37:19;5.10;;;4.60;;
15307;SDS011;7755;52.208;6.964;2023-04-03T23:41:22;5.80;;;5.30;;
15307;SDS011;7755;52.208;6.964;2023-04-03T23:45:26;4.90;;;4.50;;
15307;SDS011;7755;52.208;6.964;2023-04-03T23:49:29;5.60;;;4.70;;
15307;SDS011;7755;52.208;6.964;2023-04-03T23:53:33;5.77;;;5.07;;
15307;SDS011;7755;52.208;6.964;2023-04-03T23:57:36;5.03;;;4.53;;
